Time;durP1;ratioP1;P1;durP2;ratioP2;P2;SDS_P1;SDS_P2;PMS_P1;PMS_P2;Temp;Humidity;BMP_temperature;BMP_pressure;BME280_temperature;BME280_humidity;BME280_pressure;Samples;Min_cycle;Max_cycle;Signal;HPM_P1;HPM_P2
2023/12/03 00:00:15;;;;;;;23.35;11.48;;;0.00;66.80;;;-6.15;100.00;95754.19;4937758;28;20031;-54
2023/12/03 00:02:42;;;;;;;22.92;10.95;;;-0.10;66.90;;;-6.16;100.00;95750.00;4950427;28;20023;-56
2023/12/03 00:05:11;;;;;;;23.73;11.70;;;-0.20;66.90;;;-6.30;100.00;95749.63;4946386;28;20018;-54
2023/12/03 00:07:38;;;;;;;25.88;11.70;;;-0.30;66.80;;;-6.34;100.00;95750.88;4955879;28;20078;-54
2023/12/03 00:10:05;;;;;;;19.48;10.35;;;-0.30;66.90;;;-6.44;100.00;95751.97;4946428;28;20124;-55
2023/12/03 00:12:31;;;;;;;21.90;11.02;;;-0.40;66.80;;;-6.50;100.00;95752.59;4950703;28;20457;-56
2023/12/03 00:14:57;;;;;;;22.10;11.05;;;-0.50;66.80;;;-6.63;100.00;95755.59;4943446;28;20069;-55
2023/12/03 00:17:23;;;;;;;24.20;11.20;;;-0.60;66.70;;;-6.80;100.00;95755.53;4950404;28;20425;-56
2023/12/03 00:19:49;;;;;;;22.83;10.73;;;-0.70;66.60;;;-6.87;100.00;95762.25;4950561;28;20111;-53
2023/12/03 00:22:15;;;;;;;37.15;11.07;;;-0.80;66.50;;;-7.05;100.00;95758.88;4942828;28;20023;-54
2023/12/03 00:24:41;;;;;;;22.35;10.55;;;-0.90;66.40;;;-7.12;100.00;95766.47;4954501;28;20027;-59
2023/12/03 00:27:07;;;;;;;28.75;11.60;;;-1.00;66.30;;;-7.28;100.00;95768.91;4938498;28;20027;-59
2023/12/03 00:29:32;;;;;;;22.90;10.80;;;-1.10;66.30;;;-7.36;100.00;95767.09;4958759;28;20026;-58
2023/12/03 00:31:58;;;;;;;20.60;10.35;;;-1.30;66.30;;;-7.40;100.00;95770.13;4960237;28;20053;-59
2023/12/03 00:34:24;;;;;;;24.52;12.15;;;-1.40;66.30;;;-7.61;100.00;95771.25;4946492;28;20481;-59
2023/12/03 00:36:50;;;;;;;23.58;11.27;;;-1.50;66.30;;;-7.72;100.00;95779.19;4956883;28;20105;-57
2023/12/03 00:39:16;;;;;;;24.70;11.00;;;-1.60;66.30;;;-7.80;100.00;95781.69;4953084;28;20124;-55
2023/12/03 00:41:42;;;;;;;59.22;12.40;;;-1.70;66.30;;;-7.89;100.00;95780.81;4962118;28;20076;-57
2023/12/03 00:44:08;;;;;;;33.97;10.88;;;-1.80;66.30;;;-7.92;100.00;95781.13;4951083;28;20065;-57
2023/12/03 00:46:33;;;;;;;29.73;11.27;;;-1.90;66.40;;;-8.00;100.00;95781.81;4956229;28;20062;-59
2023/12/03 00:48:59;;;;;;;58.08;12.63;;;-2.00;66.40;;;-8.11;100.00;95786.41;4952033;28;20073;-59
2023/12/03 00:51:25;;;;;;;26.90;10.73;;;-2.00;66.50;;;-8.31;100.00;95785.66;4955349;28;20029;-55
2023/12/03 00:53:51;;;;;;;21.15;10.05;;;-2.10;66.50;;;-8.42;100.00;95784.94;4951612;28;20121;-56
2023/12/03 00:56:17;;;;;;;21.92;10.48;;;-2.20;66.50;;;-8.47;100.00;95791.47;4946450;28;20102;-56
2023/12/03 00:58:42;;;;;;;25.10;10.52;;;-2.30;66.60;;;-8.51;100.00;95790.94;4950087;28;20058;-58
2023/12/03 01:01:09;;;;;;;49.45;12.30;;;-2.30;66.60;;;-8.55;100.00;95802.53;4944311;28;20030;-54
2023/12/03 01:03:35;;;;;;;23.65;10.77;;;-2.40;66.60;;;-8.61;100.00;95797.91;4957616;28;20431;-56
2023/12/03 01:06:01;;;;;;;28.75;11.65;;;-2.50;66.70;;;-8.66;100.00;95800.09;4953310;28;20075;-59
2023/12/03 01:08:26;;;;;;;31.00;10.50;;;-2.60;66.80;;;-8.69;100.00;95806.34;4952044;28;20038;-59
2023/12/03 01:10:52;;;;;;;32.88;11.48;;;-2.70;66.70;;;-8.78;100.00;95804.59;4953157;28;20026;-57
2023/12/03 01:13:18;;;;;;;23.45;9.75;;;-2.70;66.70;;;-8.89;100.00;95805.59;4946804;28;20034;-59
2023/12/03 01:15:44;;;;;;;21.98;10.45;;;-2.80;66.80;;;-9.02;100.00;95810.25;4951888;28;20461;-57
2023/12/03 01:18:11;;;;;;;23.10;11.23;;;-2.90;66.70;;;-8.96;100.00;95817.44;4950860;28;20054;-60
2023/12/03 01:20:39;;;;;;;23.67;10.90;;;-2.90;67.60;;;-8.96;100.00;95816.59;4959086;28;20027;-58
2023/12/03 01:23:05;;;;;;;25.63;11.15;;;-3.00;66.90;;;-8.99;100.00;95822.88;4942435;28;20105;-60
2023/12/03 01:25:31;;;;;;;19.73;9.43;;;-3.00;66.90;;;-9.15;100.00;95823.44;4955371;28;20027;-58
2023/12/03 01:27:57;;;;;;;23.55;10.10;;;-3.00;66.90;;;-9.20;100.00;95822.22;4946774;28;20018;-59
2023/12/03 01:30:23;;;;;;;30.08;10.50;;;-3.10;66.80;;;-9.19;100.00;95824.66;4940519;28;20089;-60
2023/12/03 01:32:49;;;;;;;25.60;11.98;;;-3.20;66.70;;;-9.20;100.00;95828.19;4982195;23;20062;-54
2023/12/03 01:35:17;;;;;;;27.70;11.18;;;-3.20;66.90;;;-9.26;100.00;95831.31;4961079;28;20046;-58
2023/12/03 01:37:43;;;;;;;35.97;12.45;;;-3.30;66.70;;;-9.33;100.00;95830.25;4964379;28;20037;-58
2023/12/03 01:40:10;;;;;;;26.77;11.90;;;-3.30;66.80;;;-9.34;100.00;95832.00;4961116;28;20153;-58
2023/12/03 01:42:36;;;;;;;22.80;10.55;;;-3.30;66.80;;;-9.42;100.00;95831.84;4951624;28;20489;-59
2023/12/03 01:45:02;;;;;;;29.48;11.43;;;-3.40;66.80;;;-9.51;100.00;95837.00;4946002;28;20065;-58
2023/12/03 01:47:30;;;;;;;33.88;12.13;;;-3.40;66.80;;;-9.53;100.00;95836.31;4944945;28;20018;-57
